sensor_id;sensor_type;location;lat;lon;timestamp;temperature;humidity
48686;DHT22;34485;51.536;3.816;2023-07-22T00:01:09;16.90;97.90
48686;DHT22;34485;51.536;3.816;2023-07-22T00:03:35;16.90;97.70
48686;DHT22;34485;51.536;3.816;2023-07-22T00:06:08;16.90;97.50
48686;DHT22;34485;51.536;3.816;2023-07-22T00:08:35;16.90;97.50
48686;DHT22;34485;51.536;3.816;2023-07-22T00:11:02;16.90;97.30
48686;DHT22;34485;51.536;3.816;2023-07-22T00:13:28;16.90;97.30
48686;DHT22;34485;51.536;3.816;2023-07-22T00:15:55;16.90;97.20
48686;DHT22;34485;51.536;3.816;2023-07-22T00:18:21;16.80;97.30
48686;DHT22;34485;51.536;3.816;2023-07-22T00:20:46;16.80;97.60
48686;DHT22;34485;51.536;3.816;2023-07-22T00:23:13;16.80;97.70
48686;DHT22;34485;51.536;3.816;2023-07-22T00:25:40;16.70;97.90
48686;DHT22;34485;51.536;3.816;2023-07-22T00:28:06;16.60;97.90
48686;DHT22;34485;51.536;3.816;2023-07-22T00:30:32;16.60;98.00
48686;DHT22;34485;51.536;3.816;2023-07-22T00:32:57;16.50;98.20
48686;DHT22;34485;51.536;3.816;2023-07-22T00:35:23;16.50;98.40
48686;DHT22;34485;51.536;3.816;2023-07-22T00:37:48;16.40;98.50
48686;DHT22;34485;51.536;3.816;2023-07-22T00:40:15;16.30;98.70
48686;DHT22;34485;51.536;3.816;2023-07-22T00:42:42;16.30;99.00
48686;DHT22;34485;51.536;3.816;2023-07-22T00:45:08;16.20;99.20
48686;DHT22;34485;51.536;3.816;2023-07-22T00:47:35;16.20;99.30
48686;DHT22;34485;51.536;3.816;2023-07-22T00:50:06;16.10;99.50
48686;DHT22;34485;51.536;3.816;2023-07-22T00:52:32;16.00;99.70
48686;DHT22;34485;51.536;3.816;2023-07-22T00:54:59;16.00;99.90
48686;DHT22;34485;51.536;3.816;2023-07-22T00:57:25;15.90;99.80
48686;DHT22;34485;51.536;3.816;2023-07-22T00:59:51;15.90;99.80
48686;DHT22;34485;51.536;3.816;2023-07-22T01:02:18;15.80;99.90
48686;DHT22;34485;51.536;3.816;2023-07-22T01:04:44;15.70;99.90
48686;DHT22;34485;51.536;3.816;2023-07-22T01:07:10;15.70;99.90
48686;DHT22;34485;51.536;3.816;2023-07-22T01:09:40;15.60;99.90
48686;DHT22;34485;51.536;3.816;2023-07-22T01:12:07;15.60;99.90
48686;DHT22;34485;51.536;3.816;2023-07-22T01:14:34;15.50;99.90
48686;DHT22;34485;51.536;3.816;2023-07-22T01:17:04;15.50;99.90
48686;DHT22;34485;51.536;3.816;2023-07-22T01:19:31;15.40;99.90
48686;DHT22;34485;51.536;3.816;2023-07-22T01:22:01;15.50;99.90
48686;DHT22;34485;51.536;3.816;2023-07-22T01:24:28;15.50;99.90
48686;DHT22;34485;51.536;3.816;2023-07-22T01:26:54;15.50;99.90
48686;DHT22;34485;51.536;3.816;2023-07-22T01:29:21;15.50;99.90
48686;DHT22;34485;51.536;3.816;2023-07-22T01:31:50;15.60;99.90
48686;DHT22;34485;51.536;3.816;2023-07-22T01:34:15;15.60;99.90
48686;DHT22;34485;51.536;3.816;2023-07-22T01:36:42;15.60;99.90
48686;DHT22;34485;51.536;3.816;2023-07-22T01:39:08;15.60;99.90
48686;DHT22;34485;51.536;3.816;2023-07-22T01:41:34;15.60;99.90
48686;DHT22;34485;51.536;3.816;2023-07-22T01:43:59;15.60;99.90
48686;DHT22;34485;51.536;3.816;2023-07-22T01:46:25;15.50;99.90
48686;DHT22;34485;51.536;3.816;2023-07-22T01:48:51;15.50;99.90
48686;DHT22;34485;51.536;3.816;2023-07-22T01:51:16;15.50;99.90
48686;DHT22;34485;51.536;3.816;2023-07-22T01:53:42;15.50;99.90
48686;DHT22;34485;51.536;3.816;2023-07-22T01:56:07;15.40;99.90
48686;DHT22;34485;51.536;3.816;2023-07-22T01:58:34;15.40;99.90
48686;DHT22;34485;51.536;3.816;2023-07-22T02:00:59;15.30;99.90
48686;DHT22;34485;51.536;3.816;2023-07-22T02:03:25;15.30;99.90
48686;DHT22;34485;51.536;3.816;2023-07-22T02:05:50;15.30;99.90
48686;DHT22;34485;51.536;3.816;2023-07-22T02:08:16;15.20;99.90
48686;DHT22;34485;51.536;3.816;2023-07-22T02:10:42;15.20;99.90
48686;DHT22;34485;51.536;3.816;2023-07-22T02:13:07;15.10;99.90
48686;DHT22;34485;51.536;3.816;2023-07-22T02:15:33;15.10;99.90
48686;DHT22;34485;51.536;3.816;2023-07-22T02:18:00;15.10;99.90
48686;DHT22;34485;51.536;3.816;2023-07-22T02:20:25;15.00;99.90
48686;DHT22;34485;51.536;3.816;2023-07-22T02:22:54;15.00;99.90
48686;DHT22;34485;51.536;3.816;2023-07-22T02:25:20;15.00;99.90
48686;DHT22;34485;51.536;3.816;2023-07-22T02:27:45;14.90;99.90
48686;DHT22;34485;51.536;3.816;2023-07-22T02:30:11;14.90;99.90
48686;DHT22;34485;51.536;3.816;2023-07-22T02:32:40;14.90;99.90
48686;DHT22;34485;51.536;3.816;2023-07-22T02:35:07;14.80;99.90
48686;DHT22;34485;51.536;3.816;2023-07-22T02:37:35;14.80;99.90
48686;DHT22;34485;51.536;3.816;2023-07-22T02:40:00;14.80;99.90
48686;DHT22;34485;51.536;3.816;2023-07-22T02:42:26;14.80;99.90
48686;DHT22;34485;51.536;3.816;2023-07-22T02:44:52;14.80;99.90
48686;DHT22;34485;51.536;3.816;2023-07-22T02:47:17;14.70;99.90
48686;DHT22;34485;51.536;3.816;2023-07-22T02:49:43;14.70;99.90
48686;DHT22;34485;51.536;3.816;2023-07-22T02:52:09;14.70;99.90
48686;DHT22;34485;51.536;3.816;2023-07-22T02:54:39;14.70;99.90
48686;DHT22;34485;51.536;3.816;2023-07-22T02:57:05;14.60;99.90
48686;DHT22;34485;51.536;3.816;2023-07-22T02:59:31;14.70;99.90
48686;DHT22;34485;51.536;3.816;2023-07-22T03:01:57;14.70;99.90
48686;DHT22;34485;51.536;3.816;2023-07-22T03:04:23;14.60;99.90
48686;DHT22;34485;51.536;3.816;2023-07-22T03:06:48;14.70;99.90
48686;DHT22;34485;51.536;3.816;2023-07-22T03:09:14;14.60;99.90
48686;DHT22;34485;51.536;3.816;2023-07-22T03:11:40;14.60;99.90
48686;DHT22;34485;51.536;3.816;2023-07-22T03:14:05;14.60;99.90
48686;DHT22;34485;51.536;3.816;2023-07-22T03:16:31;14.60;99.90
48686;DHT22;34485;51.536;3.816;2023-07-22T03:18:57;14.60;99.90
48686;DHT22;34485;51.536;3.816;2023-07-22T03:21:23;14.60;99.90
48686;DHT22;34485;51.536;3.816;2023-07-22T03:23:48;14.60;99.90
48686;DHT22;34485;51.536;3.816;2023-07-22T03:26:14;14.60;99.90
48686;DHT22;34485;51.536;3.816;2023-07-22T03:28:40;14.60;99.90
48686;DHT22;34485;51.536;3.816;2023-07-22T03:31:07;14.60;99.90
48686;DHT22;34485;51.536;3.816;2023-07-22T03:33:34;14.60;99.90
48686;DHT22;34485;51.536;3.816;2023-07-22T03:36:00;14.60;99.90
48686;DHT22;34485;51.536;3.816;2023-07-22T03:38:26;14.60;99.90
48686;DHT22;34485;51.536;3.816;2023-07-22T03:40:51;14.60;99.90
48686;DHT22;34485;51.536;3.816;2023-07-22T03:43:20;14.60;99.90
48686;DHT22;34485;51.536;3.816;2023-07-22T03:45:45;14.60;99.90
48686;DHT22;34485;51.536;3.816;2023-07-22T03:48:11;14.70;99.90
48686;DHT22;34485;51.536;3.816;2023-07-22T03:50:36;14.60;99.90
48686;DHT22;34485;51.536;3.816;2023-07-22T03:53:02;14.60;99.90
48686;DHT22;34485;51.536;3.816;2023-07-22T03:55:28;14.70;99.90
48686;DHT22;34485;51.536;3.816;2023-07-22T03:57:53;14.70;99.90
48686;DHT22;34485;51.536;3.816;2023-07-22T04:00:20;14.80;99.90
48686;DHT22;34485;51.536;3.816;2023-07-22T04:02:46;14.80;99.90
48686;DHT22;34485;51.536;3.816;2023-07-22T04:05:12;14.90;99.90
48686;DHT22;34485;51.536;3.816;2023-07-22T04:07:38;14.90;99.90
48686;DHT22;34485;51.536;3.816;2023-07-22T04:10:04;15.00;99.90
48686;DHT22;34485;51.536;3.816;2023-07-22T04:12:29;15.10;99.90
48686;DHT22;34485;51.536;3.816;2023-07-22T04:14:55;15.10;99.90
48686;DHT22;34485;51.536;3.816;2023-07-22T04:17:21;15.20;99.90
48686;DHT22;34485;51.536;3.816;2023-07-22T04:19:46;15.20;99.90
48686;DHT22;34485;51.536;3.816;2023-07-22T04:22:12;15.20;99.90
48686;DHT22;34485;51.536;3.816;2023-07-22T04:24:37;15.30;99.90
48686;DHT22;34485;51.536;3.816;2023-07-22T04:27:03;15.30;99.90
48686;DHT22;34485;51.536;3.816;2023-07-22T04:29:29;15.40;99.90
48686;DHT22;34485;51.536;3.816;2023-07-22T04:31:58;15.40;99.90
48686;DHT22;34485;51.536;3.816;2023-07-22T04:34:28;15.40;99.90
48686;DHT22;34485;51.536;3.816;2023-07-22T04:36:53;15.50;99.90
48686;DHT22;34485;51.536;3.816;2023-07-22T04:39:19;15.50;99.90
48686;DHT22;34485;51.536;3.816;2023-07-22T04:41:45;15.50;99.90
48686;DHT22;34485;51.536;3.816;2023-07-22T04:44:10;15.60;99.90
48686;DHT22;34485;51.536;3.816;2023-07-22T04:46:36;15.70;99.90
48686;DHT22;34485;51.536;3.816;2023-07-22T04:49:01;15.70;99.90
48686;DHT22;34485;51.536;3.816;2023-07-22T04:51:28;15.80;99.90
48686;DHT22;34485;51.536;3.816;2023-07-22T04:53:53;15.80;99.90
48686;DHT22;34485;51.536;3.816;2023-07-22T04:56:19;15.90;99.90
48686;DHT22;34485;51.536;3.816;2023-07-22T04:58:44;15.90;99.90
48686;DHT22;34485;51.536;3.816;2023-07-22T05:01:10;15.90;99.90
48686;DHT22;34485;51.536;3.816;2023-07-22T05:03:36;15.90;99.90
48686;DHT22;34485;51.536;3.816;2023-07-22T05:06:01;16.00;99.90
48686;DHT22;34485;51.536;3.816;2023-07-22T05:08:27;16.00;99.90
48686;DHT22;34485;51.536;3.816;2023-07-22T05:10:53;16.00;99.90
48686;DHT22;34485;51.536;3.816;2023-07-22T05:13:18;16.00;99.90
48686;DHT22;34485;51.536;3.816;2023-07-22T05:15:44;16.10;99.90
48686;DHT22;34485;51.536;3.816;2023-07-22T05:18:10;16.10;99.90
48686;DHT22;34485;51.536;3.816;2023-07-22T05:20:37;16.20;99.90
48686;DHT22;34485;51.536;3.816;2023-07-22T05:23:03;16.20;99.90
48686;DHT22;34485;51.536;3.816;2023-07-22T05:25:28;16.30;99.90
48686;DHT22;34485;51.536;3.816;2023-07-22T05:27:54;16.30;99.90
48686;DHT22;34485;51.536;3.816;2023-07-22T05:30:20;16.30;99.90
48686;DHT22;34485;51.536;3.816;2023-07-22T05:32:45;16.30;99.90
48686;DHT22;34485;51.536;3.816;2023-07-22T05:35:11;16.30;99.90
48686;DHT22;34485;51.536;3.816;2023-07-22T05:37:37;16.40;99.90
48686;DHT22;34485;51.536;3.816;2023-07-22T05:40:03;16.50;99.90
48686;DHT22;34485;51.536;3.816;2023-07-22T05:42:28;16.60;99.90
48686;DHT22;34485;51.536;3.816;2023-07-22T05:44:55;16.70;99.90
48686;DHT22;34485;51.536;3.816;2023-07-22T05:47:22;16.80;99.90
48686;DHT22;34485;51.536;3.816;2023-07-22T05:49:47;16.80;99.90
48686;DHT22;34485;51.536;3.816;2023-07-22T05:52:13;16.90;99.90
48686;DHT22;34485;51.536;3.816;2023-07-22T05:54:38;17.00;99.90
48686;DHT22;34485;51.536;3.816;2023-07-22T05:57:04;17.10;99.90
48686;DHT22;34485;51.536;3.816;2023-07-22T05:59:31;17.20;99.90
48686;DHT22;34485;51.536;3.816;2023-07-22T06:01:56;17.10;99.90
48686;DHT22;34485;51.536;3.816;2023-07-22T06:04:22;17.20;99.90
48686;DHT22;34485;51.536;3.816;2023-07-22T06:06:47;17.30;99.90
48686;DHT22;34485;51.536;3.816;2023-07-22T06:09:13;17.40;99.90
48686;DHT22;34485;51.536;3.816;2023-07-22T06:11:38;17.40;99.90
48686;DHT22;34485;51.536;3.816;2023-07-22T06:14:04;17.50;99.90
48686;DHT22;34485;51.536;3.816;2023-07-22T06:16:30;17.50;99.90
48686;DHT22;34485;51.536;3.816;2023-07-22T06:18:55;17.50;99.90
48686;DHT22;34485;51.536;3.816;2023-07-22T06:21:21;17.50;99.90
48686;DHT22;34485;51.536;3.816;2023-07-22T06:23:46;17.50;99.90
48686;DHT22;34485;51.536;3.816;2023-07-22T06:26:12;17.60;99.90
48686;DHT22;34485;51.536;3.816;2023-07-22T06:28:37;17.60;99.90
48686;DHT22;34485;51.536;3.816;2023-07-22T06:31:03;17.60;99.80
48686;DHT22;34485;51.536;3.816;2023-07-22T06:33:28;17.60;99.90
48686;DHT22;34485;51.536;3.816;2023-07-22T06:35:54;17.70;99.90
48686;DHT22;34485;51.536;3.816;2023-07-22T06:38:20;17.80;99.90
48686;DHT22;34485;51.536;3.816;2023-07-22T06:40:45;17.90;99.40
48686;DHT22;34485;51.536;3.816;2023-07-22T06:43:11;18.10;99.00
48686;DHT22;34485;51.536;3.816;2023-07-22T06:45:37;18.40;99.20
48686;DHT22;34485;51.536;3.816;2023-07-22T06:48:02;18.80;98.40
48686;DHT22;34485;51.536;3.816;2023-07-22T06:50:28;19.00;97.40
48686;DHT22;34485;51.536;3.816;2023-07-22T06:52:54;19.10;96.20
48686;DHT22;34485;51.536;3.816;2023-07-22T06:55:19;19.20;95.90
48686;DHT22;34485;51.536;3.816;2023-07-22T06:57:47;19.20;95.60
48686;DHT22;34485;51.536;3.816;2023-07-22T07:00:13;19.30;95.10
48686;DHT22;34485;51.536;3.816;2023-07-22T07:02:39;19.40;94.80
48686;DHT22;34485;51.536;3.816;2023-07-22T07:05:05;19.40;95.00
48686;DHT22;34485;51.536;3.816;2023-07-22T07:07:30;19.60;94.60
48686;DHT22;34485;51.536;3.816;2023-07-22T07:09:58;19.70;94.20
48686;DHT22;34485;51.536;3.816;2023-07-22T07:12:23;19.80;93.80
48686;DHT22;34485;51.536;3.816;2023-07-22T07:14:53;20.00;93.60
48686;DHT22;34485;51.536;3.816;2023-07-22T07:17:19;20.10;92.90
48686;DHT22;34485;51.536;3.816;2023-07-22T07:19:46;20.20;92.50
48686;DHT22;34485;51.536;3.816;2023-07-22T07:22:11;20.40;92.40
48686;DHT22;34485;51.536;3.816;2023-07-22T07:24:37;20.50;91.30
48686;DHT22;34485;51.536;3.816;2023-07-22T07:27:07;20.50;91.20
48686;DHT22;34485;51.536;3.816;2023-07-22T07:29:33;20.50;91.00
48686;DHT22;34485;51.536;3.816;2023-07-22T07:31:59;20.50;90.90
48686;DHT22;34485;51.536;3.816;2023-07-22T07:34:24;20.70;90.70
48686;DHT22;34485;51.536;3.816;2023-07-22T07:36:55;21.20;90.10
48686;DHT22;34485;51.536;3.816;2023-07-22T07:39:20;21.80;86.90
48686;DHT22;34485;51.536;3.816;2023-07-22T07:41:46;22.20;84.80
48686;DHT22;34485;51.536;3.816;2023-07-22T07:44:12;22.50;82.70
48686;DHT22;34485;51.536;3.816;2023-07-22T07:46:39;22.80;81.00
48686;DHT22;34485;51.536;3.816;2023-07-22T07:49:04;23.00;80.10
48686;DHT22;34485;51.536;3.816;2023-07-22T07:51:31;23.00;79.50
48686;DHT22;34485;51.536;3.816;2023-07-22T07:53:58;23.20;79.50
48686;DHT22;34485;51.536;3.816;2023-07-22T07:56:24;23.80;78.40
48686;DHT22;34485;51.536;3.816;2023-07-22T07:58:52;24.20;75.20
48686;DHT22;34485;51.536;3.816;2023-07-22T08:01:18;23.90;74.30
48686;DHT22;34485;51.536;3.816;2023-07-22T08:03:44;23.60;74.40
48686;DHT22;34485;51.536;3.816;2023-07-22T08:06:11;23.60;75.30
48686;DHT22;34485;51.536;3.816;2023-07-22T08:08:37;23.40;75.80
48686;DHT22;34485;51.536;3.816;2023-07-22T08:11:07;23.20;76.50
48686;DHT22;34485;51.536;3.816;2023-07-22T08:13:34;23.00;76.60
48686;DHT22;34485;51.536;3.816;2023-07-22T08:16:01;23.00;78.40
48686;DHT22;34485;51.536;3.816;2023-07-22T08:18:29;23.20;77.00
48686;DHT22;34485;51.536;3.816;2023-07-22T08:20:55;23.50;76.50
48686;DHT22;34485;51.536;3.816;2023-07-22T08:23:21;23.80;75.30
48686;DHT22;34485;51.536;3.816;2023-07-22T08:25:47;23.70;73.60
48686;DHT22;34485;51.536;3.816;2023-07-22T08:28:14;23.80;74.40
48686;DHT22;34485;51.536;3.816;2023-07-22T08:30:40;23.90;72.50
48686;DHT22;34485;51.536;3.816;2023-07-22T08:33:10;23.50;72.10
48686;DHT22;34485;51.536;3.816;2023-07-22T08:35:37;23.50;72.70
48686;DHT22;34485;51.536;3.816;2023-07-22T08:38:03;23.80;70.90
48686;DHT22;34485;51.536;3.816;2023-07-22T08:40:39;24.00;70.60
48686;DHT22;34485;51.536;3.816;2023-07-22T08:43:07;24.30;70.50
48686;DHT22;34485;51.536;3.816;2023-07-22T08:48:05;25.70;66.20
48686;DHT22;34485;51.536;3.816;2023-07-22T08:50:55;26.20;62.80
48686;DHT22;34485;51.536;3.816;2023-07-22T08:53:23;26.40;60.30
48686;DHT22;34485;51.536;3.816;2023-07-22T08:55:51;26.00;59.90
48686;DHT22;34485;51.536;3.816;2023-07-22T08:58:16;26.30;60.90
48686;DHT22;34485;51.536;3.816;2023-07-22T09:00:43;27.00;60.50
48686;DHT22;34485;51.536;3.816;2023-07-22T09:03:10;27.40;99.90
48686;DHT22;34485;51.536;3.816;2023-07-22T09:05:37;27.60;56.80
48686;DHT22;34485;51.536;3.816;2023-07-22T09:08:05;27.90;53.40
48686;DHT22;34485;51.536;3.816;2023-07-22T09:10:32;28.10;52.40
48686;DHT22;34485;51.536;3.816;2023-07-22T09:13:00;27.90;52.50
48686;DHT22;34485;51.536;3.816;2023-07-22T09:15:26;28.40;50.90
48686;DHT22;34485;51.536;3.816;2023-07-22T09:17:53;28.70;50.90
48686;DHT22;34485;51.536;3.816;2023-07-22T09:22:50;27.90;47.90
48686;DHT22;34485;51.536;3.816;2023-07-22T09:25:19;28.00;48.70
48686;DHT22;34485;51.536;3.816;2023-07-22T09:27:46;28.30;48.80
48686;DHT22;34485;51.536;3.816;2023-07-22T09:30:27;28.10;46.80
48686;DHT22;34485;51.536;3.816;2023-07-22T09:32:57;27.50;46.30
48686;DHT22;34485;51.536;3.816;2023-07-22T09:35:28;26.80;48.90
48686;DHT22;34485;51.536;3.816;2023-07-22T09:40:25;25.60;51.60
48686;DHT22;34485;51.536;3.816;2023-07-22T09:42:55;25.40;54.70
48686;DHT22;34485;51.536;3.816;2023-07-22T09:45:25;25.60;56.60
48686;DHT22;34485;51.536;3.816;2023-07-22T09:47:53;25.80;52.70
48686;DHT22;34485;51.536;3.816;2023-07-22T09:50:24;25.70;53.10
48686;DHT22;34485;51.536;3.816;2023-07-22T09:52:54;25.60;53.20
48686;DHT22;34485;51.536;3.816;2023-07-22T09:55:25;25.50;53.60
48686;DHT22;34485;51.536;3.816;2023-07-22T09:58:02;25.20;53.10
48686;DHT22;34485;51.536;3.816;2023-07-22T10:00:29;24.80;56.30
48686;DHT22;34485;51.536;3.816;2023-07-22T10:02:57;24.80;56.20
48686;DHT22;34485;51.536;3.816;2023-07-22T10:05:24;24.80;57.10
48686;DHT22;34485;51.536;3.816;2023-07-22T10:07:52;24.80;56.10
48686;DHT22;34485;51.536;3.816;2023-07-22T10:10:20;24.90;55.50
48686;DHT22;34485;51.536;3.816;2023-07-22T10:12:46;24.80;56.50
48686;DHT22;34485;51.536;3.816;2023-07-22T10:17:41;24.20;56.60
48686;DHT22;34485;51.536;3.816;2023-07-22T10:20:12;23.60;60.60
48686;DHT22;34485;51.536;3.816;2023-07-22T10:22:42;23.00;63.90
48686;DHT22;34485;51.536;3.816;2023-07-22T10:25:11;22.60;65.40
48686;DHT22;34485;51.536;3.816;2023-07-22T10:27:37;22.30;66.50
48686;DHT22;34485;51.536;3.816;2023-07-22T10:30:06;21.90;67.60
48686;DHT22;34485;51.536;3.816;2023-07-22T10:32:33;21.70;75.00
48686;DHT22;34485;51.536;3.816;2023-07-22T10:35:00;21.50;74.30
48686;DHT22;34485;51.536;3.816;2023-07-22T10:37:33;21.30;70.90
48686;DHT22;34485;51.536;3.816;2023-07-22T10:40:26;21.20;93.10
48686;DHT22;34485;51.536;3.816;2023-07-22T10:43:04;20.90;71.80
48686;DHT22;34485;51.536;3.816;2023-07-22T10:45:36;20.70;75.90
48686;DHT22;34485;51.536;3.816;2023-07-22T10:48:12;20.60;76.60
48686;DHT22;34485;51.536;3.816;2023-07-22T10:50:46;20.50;75.50
48686;DHT22;34485;51.536;3.816;2023-07-22T10:56:12;20.30;78.50
48686;DHT22;34485;51.536;3.816;2023-07-22T11:01:22;20.00;83.10
48686;DHT22;34485;51.536;3.816;2023-07-22T11:12:14;19.30;90.90
48686;DHT22;34485;51.536;3.816;2023-07-22T11:17:13;19.00;92.40
48686;DHT22;34485;51.536;3.816;2023-07-22T11:19:39;19.00;92.90
48686;DHT22;34485;51.536;3.816;2023-07-22T11:22:06;19.10;93.20
48686;DHT22;34485;51.536;3.816;2023-07-22T11:24:34;19.10;92.90
48686;DHT22;34485;51.536;3.816;2023-07-22T11:27:04;19.30;92.70
48686;DHT22;34485;51.536;3.816;2023-07-22T11:29:30;19.40;91.90
48686;DHT22;34485;51.536;3.816;2023-07-22T11:31:56;19.50;91.60
48686;DHT22;34485;51.536;3.816;2023-07-22T11:34:24;19.70;91.10
48686;DHT22;34485;51.536;3.816;2023-07-22T11:36:51;20.00;90.80
48686;DHT22;34485;51.536;3.816;2023-07-22T11:39:25;20.30;88.90
48686;DHT22;34485;51.536;3.816;2023-07-22T11:44:20;21.40;83.40
48686;DHT22;34485;51.536;3.816;2023-07-22T11:52:06;23.40;72.60
48686;DHT22;34485;51.536;3.816;2023-07-22T11:54:37;23.40;70.90
48686;DHT22;34485;51.536;3.816;2023-07-22T11:57:17;23.40;70.20
48686;DHT22;34485;51.536;3.816;2023-07-22T11:59:45;23.30;69.40
48686;DHT22;34485;51.536;3.816;2023-07-22T12:02:19;23.10;70.10
48686;DHT22;34485;51.536;3.816;2023-07-22T12:09:53;23.60;69.20
48686;DHT22;34485;51.536;3.816;2023-07-22T12:12:19;24.10;68.80
48686;DHT22;34485;51.536;3.816;2023-07-22T12:14:44;24.80;63.20
48686;DHT22;34485;51.536;3.816;2023-07-22T12:17:10;25.30;62.30
48686;DHT22;34485;51.536;3.816;2023-07-22T12:19:36;25.70;61.40
48686;DHT22;34485;51.536;3.816;2023-07-22T12:22:01;25.70;58.50
48686;DHT22;34485;51.536;3.816;2023-07-22T12:24:27;25.70;56.40
48686;DHT22;34485;51.536;3.816;2023-07-22T12:26:53;25.40;56.10
48686;DHT22;34485;51.536;3.816;2023-07-22T12:29:19;25.20;57.80
48686;DHT22;34485;51.536;3.816;2023-07-22T12:31:45;24.80;58.60
48686;DHT22;34485;51.536;3.816;2023-07-22T12:34:11;24.80;61.90
48686;DHT22;34485;51.536;3.816;2023-07-22T12:36:36;24.80;59.20
48686;DHT22;34485;51.536;3.816;2023-07-22T12:39:02;24.50;58.30
48686;DHT22;34485;51.536;3.816;2023-07-22T12:43:54;23.60;93.20
48686;DHT22;34485;51.536;3.816;2023-07-22T12:48:46;22.80;99.90
48686;DHT22;34485;51.536;3.816;2023-07-22T13:00:58;21.50;99.90
48686;DHT22;34485;51.536;3.816;2023-07-22T13:03:23;21.40;72.00
48686;DHT22;34485;51.536;3.816;2023-07-22T13:05:49;21.10;74.20
48686;DHT22;34485;51.536;3.816;2023-07-22T13:08:15;20.80;75.90
48686;DHT22;34485;51.536;3.816;2023-07-22T13:10:40;20.70;77.30
48686;DHT22;34485;51.536;3.816;2023-07-22T13:13:10;20.60;80.40
48686;DHT22;34485;51.536;3.816;2023-07-22T13:15:36;20.60;81.10
48686;DHT22;34485;51.536;3.816;2023-07-22T13:18:01;20.70;80.30
48686;DHT22;34485;51.536;3.816;2023-07-22T13:20:28;21.00;81.20
48686;DHT22;34485;51.536;3.816;2023-07-22T13:22:54;21.50;78.50
48686;DHT22;34485;51.536;3.816;2023-07-22T13:25:20;22.10;75.70
48686;DHT22;34485;51.536;3.816;2023-07-22T13:27:46;22.60;72.20
48686;DHT22;34485;51.536;3.816;2023-07-22T13:30:11;23.00;69.80
48686;DHT22;34485;51.536;3.816;2023-07-22T13:32:37;23.20;69.70
48686;DHT22;34485;51.536;3.816;2023-07-22T13:35:03;23.10;68.50
48686;DHT22;34485;51.536;3.816;2023-07-22T13:37:29;22.80;99.90
48686;DHT22;34485;51.536;3.816;2023-07-22T13:39:55;22.40;69.60
48686;DHT22;34485;51.536;3.816;2023-07-22T13:42:23;21.90;71.40
48686;DHT22;34485;51.536;3.816;2023-07-22T13:44:48;21.70;72.30
48686;DHT22;34485;51.536;3.816;2023-07-22T13:47:14;21.50;74.50
48686;DHT22;34485;51.536;3.816;2023-07-22T13:49:39;21.40;74.50
48686;DHT22;34485;51.536;3.816;2023-07-22T13:52:05;21.40;75.10
48686;DHT22;34485;51.536;3.816;2023-07-22T13:54:31;21.60;74.30
48686;DHT22;34485;51.536;3.816;2023-07-22T13:56:59;21.80;73.90
48686;DHT22;34485;51.536;3.816;2023-07-22T13:59:25;22.10;71.60
48686;DHT22;34485;51.536;3.816;2023-07-22T14:01:50;22.30;70.30
48686;DHT22;34485;51.536;3.816;2023-07-22T14:04:16;22.50;69.00
48686;DHT22;34485;51.536;3.816;2023-07-22T14:06:41;22.80;68.50
48686;DHT22;34485;51.536;3.816;2023-07-22T14:11:33;23.10;65.50
48686;DHT22;34485;51.536;3.816;2023-07-22T14:14:00;23.30;64.30
48686;DHT22;34485;51.536;3.816;2023-07-22T14:16:25;23.30;64.10
48686;DHT22;34485;51.536;3.816;2023-07-22T14:18:51;23.30;64.70
48686;DHT22;34485;51.536;3.816;2023-07-22T14:21:18;23.40;64.40
48686;DHT22;34485;51.536;3.816;2023-07-22T14:23:44;23.60;64.20
48686;DHT22;34485;51.536;3.816;2023-07-22T14:26:09;23.70;62.50
48686;DHT22;34485;51.536;3.816;2023-07-22T14:28:35;23.90;61.30
48686;DHT22;34485;51.536;3.816;2023-07-22T14:33:26;24.00;61.30
48686;DHT22;34485;51.536;3.816;2023-07-22T14:35:52;24.10;61.50
48686;DHT22;34485;51.536;3.816;2023-07-22T14:38:17;24.20;62.60
48686;DHT22;34485;51.536;3.816;2023-07-22T14:40:43;24.30;61.40
48686;DHT22;34485;51.536;3.816;2023-07-22T14:43:09;24.30;61.90
48686;DHT22;34485;51.536;3.816;2023-07-22T14:45:34;24.30;60.70
48686;DHT22;34485;51.536;3.816;2023-07-22T14:48:00;24.20;62.10
48686;DHT22;34485;51.536;3.816;2023-07-22T14:50:25;24.00;62.80
48686;DHT22;34485;51.536;3.816;2023-07-22T14:52:51;24.00;63.10
48686;DHT22;34485;51.536;3.816;2023-07-22T14:55:17;24.00;62.50
48686;DHT22;34485;51.536;3.816;2023-07-22T14:57:42;24.20;62.10
48686;DHT22;34485;51.536;3.816;2023-07-22T15:00:08;24.10;63.10
48686;DHT22;34485;51.536;3.816;2023-07-22T15:02:34;23.90;63.90
48686;DHT22;34485;51.536;3.816;2023-07-22T15:05:00;23.70;65.10
48686;DHT22;34485;51.536;3.816;2023-07-22T15:07:26;23.70;65.80
48686;DHT22;34485;51.536;3.816;2023-07-22T15:09:53;23.60;66.40
48686;DHT22;34485;51.536;3.816;2023-07-22T15:12:19;23.60;66.40
48686;DHT22;34485;51.536;3.816;2023-07-22T15:14:45;23.50;66.30
48686;DHT22;34485;51.536;3.816;2023-07-22T15:17:10;23.50;66.30
48686;DHT22;34485;51.536;3.816;2023-07-22T15:19:36;23.50;65.90
48686;DHT22;34485;51.536;3.816;2023-07-22T15:22:02;23.40;65.50
48686;DHT22;34485;51.536;3.816;2023-07-22T15:24:28;23.30;67.30
48686;DHT22;34485;51.536;3.816;2023-07-22T15:26:54;23.30;67.70
48686;DHT22;34485;51.536;3.816;2023-07-22T15:29:19;23.20;65.70
48686;DHT22;34485;51.536;3.816;2023-07-22T15:31:45;23.20;67.00
48686;DHT22;34485;51.536;3.816;2023-07-22T15:34:11;23.10;67.10
48686;DHT22;34485;51.536;3.816;2023-07-22T15:36:36;22.90;67.90
48686;DHT22;34485;51.536;3.816;2023-07-22T15:39:02;22.80;67.50
48686;DHT22;34485;51.536;3.816;2023-07-22T15:41:28;22.70;68.20
48686;DHT22;34485;51.536;3.816;2023-07-22T15:43:54;22.60;68.00
48686;DHT22;34485;51.536;3.816;2023-07-22T15:46:19;22.50;69.50
48686;DHT22;34485;51.536;3.816;2023-07-22T15:48:45;22.40;70.50
48686;DHT22;34485;51.536;3.816;2023-07-22T15:51:10;22.50;70.70
48686;DHT22;34485;51.536;3.816;2023-07-22T15:53:36;22.50;70.00
48686;DHT22;34485;51.536;3.816;2023-07-22T15:56:02;22.40;69.60
48686;DHT22;34485;51.536;3.816;2023-07-22T15:58:28;22.30;69.80
48686;DHT22;34485;51.536;3.816;2023-07-22T16:00:53;22.20;71.70
48686;DHT22;34485;51.536;3.816;2023-07-22T16:03:19;22.10;72.30
48686;DHT22;34485;51.536;3.816;2023-07-22T16:05:44;22.10;73.00
48686;DHT22;34485;51.536;3.816;2023-07-22T16:08:10;22.10;72.70
48686;DHT22;34485;51.536;3.816;2023-07-22T16:10:36;22.10;73.50
48686;DHT22;34485;51.536;3.816;2023-07-22T16:13:01;22.10;74.00
48686;DHT22;34485;51.536;3.816;2023-07-22T16:15:27;22.00;75.20
48686;DHT22;34485;51.536;3.816;2023-07-22T16:17:53;21.90;75.20
48686;DHT22;34485;51.536;3.816;2023-07-22T16:20:18;21.80;75.70
48686;DHT22;34485;51.536;3.816;2023-07-22T16:22:44;21.70;76.00
48686;DHT22;34485;51.536;3.816;2023-07-22T16:25:10;21.60;76.20